Heidrick, KY (40949)

5:36 PM EDT on July 22, 2014 (GMT -0400)
liford's (KKYBARBO2) Elev 1066 ft | 36.84 °N, 83.85 °W | Change Station

Current weather conditions updated 6 minutes ago

Overcast
Overcast
89.8 °F
Feels Like 96 °F
N
1.1
Wind Variable Wind from NE

Tomorrow is forecast to be Cooler than today. Slight chance of a thunderstorm.

Today
High -- | Low -- °F
--% Chance of Precip.
Yesterday
High -- | Low -- °F
Precip. -- in
6:33 AM 8:50 PM
Waning Crescent, 15% visible
Pressure 30.05 in
Visibility 10.0 miles
Clouds Mostly Cloudy 4200 ft
Overcast 7000 ft
Heat Index 96 °F
Dew Point 70 °F
Humidity 53%
Rainfall 0.00 in
Snow Depth Not available.
UV 2 out of 12
Pollen 3.40 out of 12
Air Quality Not available.
Flu Activity Not available.
METAR KLOZ 222053Z AUTO 24003KT 10SM BKN042 OVC070 32/19 A3009 RMK AO2 SLP176 T03170194 56013

More Conditions Fewer Conditions

Pressure 30.05 in
Visibility 10.0 miles
Clouds Mostly Cloudy 4200 ft
Overcast 7000 ft
Heat Index 96 °F
Dew Point 70 °F
Humidity 53%
Rainfall 0.00 in
Snow Depth Not available.
UV 2 out of 12
Pollen 3.40 out of 12
Air Quality Not available.
Flu Activity Not available.
METAR KLOZ 222053Z AUTO 24003KT 10SM BKN042 OVC070 32/19 A3009 RMK AO2 SLP176 T03170194 56013

More Conditions Fewer Conditions

10-Day Weather Forecast

Almanac

Astronomy

Jul. 22, 2014 Rise Set
Actual Time 6:33 AM EDT 8:50 PM EDT
Civil Twilight 6:03 AM EDT 9:19 PM EDT
Nautical Twilight 5:27 AM EDT 9:55 PM EDT
Astronomical Twilight 4:47 AM EDT 10:35 PM EDT
Moon 3:04 AM EDT 5:28 PM EDT
Length of Visible Light 15h 16m
Length of Day
14h 17m
Tomorrow will be 1m 28s shorter.
Waning Crescent, 15% of the Moon is Illuminated
Today
Waning Crescent
Jul 26
New
Aug 3
First Quarter
Aug 10
Full
Aug 17
Last Quarter

Today's Extremes

State Highs State Lows

Community

WunderPhotos

Upload Photos

1,736,360 photos uploaded!

Nearby

Snow Depth

Station Depth Elevation
No new snow has been reported.

Earthquake Activity

City Distance Mag. Time & Date
No recent earthquake activity has been reported nearby.
Minimum magnitude displayed is 2.5.

Coastal Water Temperatures

Place Temperature
No Stations Reporting

Nearby Weather Stations

Station Location Temp. Heat Index Dew Point Humidity Wind Precip. Elev Updated Type
liford's, Barbourville, KY 89.8 °F 96 °F 70 °F 53% NE  at  1.1 mph - / hr 1066 ft 5:30 PM EDT Normal
Mackey Bend, Barbourville, KY 90.5 °F 104 °F 77 °F 65% ESE  at  0.0 mph 0.00 in / hr 1020 ft 5:36 PM EDT Rapid Fire
MSWO, London, KY 89.6 °F 94 °F 68 °F 50% NE  at  0.9 mph 0.00 in / hr 1163 ft 5:36 PM EDT Rapid Fire
Colmar, Middlesboro, KY 90.0 °F 102 °F 76 °F 64% SSE  at  0.0 mph - / hr 1135 ft 5:26 PM EDT Normal
RAWS PEABODY KY, Big Creek, KY 91 °F 99 °F 73 °F 55% SSE  at  1 mph 0.00 in / hr 1464 ft 5:01 PM EDT MADIS

Show More Stations Show Fewer Stations